sensor_id;sensor_type;location;lat;lon;timestamp;P1;durP1;ratioP1;P2;durP2;ratioP2
3815;SDS011;1923;48.154;11.536;2023-02-28T00:01:11;4.05;;;3.10;;
3815;SDS011;1923;48.154;11.536;2023-02-28T00:03:41;6.25;;;3.53;;
3815;SDS011;1923;48.154;11.536;2023-02-28T00:06:09;4.68;;;3.22;;
3815;SDS011;1923;48.154;11.536;2023-02-28T00:08:38;3.97;;;2.97;;
3815;SDS011;1923;48.154;11.536;2023-02-28T00:11:07;3.65;;;3.30;;
3815;SDS011;1923;48.154;11.536;2023-02-28T00:13:39;5.75;;;2.80;;
3815;SDS011;1923;48.154;11.536;2023-02-28T00:16:10;4.93;;;2.85;;
3815;SDS011;1923;48.154;11.536;2023-02-28T00:18:40;6.03;;;3.70;;
3815;SDS011;1923;48.154;11.536;2023-02-28T00:21:08;5.68;;;4.40;;
3815;SDS011;1923;48.154;11.536;2023-02-28T00:23:37;4.38;;;3.22;;
3815;SDS011;1923;48.154;11.536;2023-02-28T00:26:05;5.57;;;3.10;;
3815;SDS011;1923;48.154;11.536;2023-02-28T00:28:33;4.47;;;2.70;;
3815;SDS011;1923;48.154;11.536;2023-02-28T00:31:03;4.53;;;3.10;;
3815;SDS011;1923;48.154;11.536;2023-02-28T00:33:31;5.00;;;3.00;;
3815;SDS011;1923;48.154;11.536;2023-02-28T00:36:03;5.35;;;3.08;;
3815;SDS011;1923;48.154;11.536;2023-02-28T00:38:33;5.00;;;3.85;;
3815;SDS011;1923;48.154;11.536;2023-02-28T00:41:01;4.40;;;3.40;;
3815;SDS011;1923;48.154;11.536;2023-02-28T00:43:32;5.43;;;3.97;;
3815;SDS011;1923;48.154;11.536;2023-02-28T00:46:00;5.00;;;3.30;;
3815;SDS011;1923;48.154;11.536;2023-02-28T00:48:30;4.70;;;3.10;;
3815;SDS011;1923;48.154;11.536;2023-02-28T00:50:58;4.85;;;3.50;;
3815;SDS011;1923;48.154;11.536;2023-02-28T00:53:27;5.32;;;3.42;;
3815;SDS011;1923;48.154;11.536;2023-02-28T00:55:55;6.00;;;3.87;;
3815;SDS011;1923;48.154;11.536;2023-02-28T00:58:24;6.97;;;4.18;;
3815;SDS011;1923;48.154;11.536;2023-02-28T01:00:53;6.78;;;4.30;;
3815;SDS011;1923;48.154;11.536;2023-02-28T01:03:23;4.55;;;3.58;;
3815;SDS011;1923;48.154;11.536;2023-02-28T01:05:52;5.28;;;4.05;;
3815;SDS011;1923;48.154;11.536;2023-02-28T01:08:20;7.63;;;3.00;;
3815;SDS011;1923;48.154;11.536;2023-02-28T01:10:49;4.97;;;3.83;;
3815;SDS011;1923;48.154;11.536;2023-02-28T01:13:17;4.22;;;3.00;;
3815;SDS011;1923;48.154;11.536;2023-02-28T01:15:46;6.05;;;3.75;;
3815;SDS011;1923;48.154;11.536;2023-02-28T01:18:18;7.05;;;3.75;;
3815;SDS011;1923;48.154;11.536;2023-02-28T01:20:46;4.68;;;3.83;;
3815;SDS011;1923;48.154;11.536;2023-02-28T01:23:16;5.63;;;3.75;;
3815;SDS011;1923;48.154;11.536;2023-02-28T01:25:44;6.13;;;3.70;;
3815;SDS011;1923;48.154;11.536;2023-02-28T01:28:12;5.65;;;3.80;;
3815;SDS011;1923;48.154;11.536;2023-02-28T01:30:40;5.40;;;3.13;;
3815;SDS011;1923;48.154;11.536;2023-02-28T01:33:09;3.78;;;3.15;;
3815;SDS011;1923;48.154;11.536;2023-02-28T01:35:37;5.20;;;3.72;;
3815;SDS011;1923;48.154;11.536;2023-02-28T01:38:05;8.75;;;4.75;;
3815;SDS011;1923;48.154;11.536;2023-02-28T01:40:48;6.70;;;4.43;;
3815;SDS011;1923;48.154;11.536;2023-02-28T01:43:19;5.90;;;3.67;;
3815;SDS011;1923;48.154;11.536;2023-02-28T01:45:49;7.40;;;3.20;;
3815;SDS011;1923;48.154;11.536;2023-02-28T01:48:17;5.43;;;4.03;;
3815;SDS011;1923;48.154;11.536;2023-02-28T01:50:48;5.85;;;3.35;;
3815;SDS011;1923;48.154;11.536;2023-02-28T01:53:18;6.93;;;3.85;;
3815;SDS011;1923;48.154;11.536;2023-02-28T01:55:52;5.65;;;3.60;;
3815;SDS011;1923;48.154;11.536;2023-02-28T01:58:21;10.02;;;4.47;;
3815;SDS011;1923;48.154;11.536;2023-02-28T02:00:50;4.90;;;3.38;;
3815;SDS011;1923;48.154;11.536;2023-02-28T02:03:19;6.45;;;4.10;;
3815;SDS011;1923;48.154;11.536;2023-02-28T02:05:48;9.13;;;4.82;;
3815;SDS011;1923;48.154;11.536;2023-02-28T02:08:17;4.40;;;3.85;;
3815;SDS011;1923;48.154;11.536;2023-02-28T02:10:48;6.32;;;3.60;;
3815;SDS011;1923;48.154;11.536;2023-02-28T02:13:28;5.07;;;3.95;;
3815;SDS011;1923;48.154;11.536;2023-02-28T02:16:13;4.70;;;3.60;;
3815;SDS011;1923;48.154;11.536;2023-02-28T02:18:51;5.10;;;3.90;;
3815;SDS011;1923;48.154;11.536;2023-02-28T02:27:20;6.97;;;4.35;;
3815;SDS011;1923;48.154;11.536;2023-02-28T02:30:14;6.57;;;4.50;;
3815;SDS011;1923;48.154;11.536;2023-02-28T02:36:07;7.25;;;4.07;;
3815;SDS011;1923;48.154;11.536;2023-02-28T02:38:42;6.18;;;4.20;;
3815;SDS011;1923;48.154;11.536;2023-02-28T02:41:16;6.20;;;4.57;;
3815;SDS011;1923;48.154;11.536;2023-02-28T02:43:48;4.00;;;3.60;;
3815;SDS011;1923;48.154;11.536;2023-02-28T02:46:19;5.85;;;4.40;;
3815;SDS011;1923;48.154;11.536;2023-02-28T02:48:50;5.60;;;3.95;;
3815;SDS011;1923;48.154;11.536;2023-02-28T02:51:23;8.30;;;4.45;;
3815;SDS011;1923;48.154;11.536;2023-02-28T02:53:55;6.88;;;4.53;;
3815;SDS011;1923;48.154;11.536;2023-02-28T02:56:28;7.57;;;4.40;;
3815;SDS011;1923;48.154;11.536;2023-02-28T02:59:04;6.60;;;4.13;;
3815;SDS011;1923;48.154;11.536;2023-02-28T03:01:35;5.00;;;3.83;;
3815;SDS011;1923;48.154;11.536;2023-02-28T03:04:06;5.85;;;4.43;;
3815;SDS011;1923;48.154;11.536;2023-02-28T03:06:38;9.73;;;4.75;;
3815;SDS011;1923;48.154;11.536;2023-02-28T03:09:06;6.72;;;4.82;;
3815;SDS011;1923;48.154;11.536;2023-02-28T03:11:34;6.30;;;4.72;;
3815;SDS011;1923;48.154;11.536;2023-02-28T03:17:06;8.40;;;4.70;;
3815;SDS011;1923;48.154;11.536;2023-02-28T03:19:47;7.40;;;4.55;;
3815;SDS011;1923;48.154;11.536;2023-02-28T03:22:32;5.53;;;4.35;;
3815;SDS011;1923;48.154;11.536;2023-02-28T03:25:12;9.77;;;5.10;;
3815;SDS011;1923;48.154;11.536;2023-02-28T03:27:48;7.80;;;5.30;;
3815;SDS011;1923;48.154;11.536;2023-02-28T03:30:25;7.28;;;4.40;;
3815;SDS011;1923;48.154;11.536;2023-02-28T03:32:58;9.20;;;5.18;;
3815;SDS011;1923;48.154;11.536;2023-02-28T03:35:34;9.38;;;5.20;;
3815;SDS011;1923;48.154;11.536;2023-02-28T03:38:08;8.05;;;5.05;;
3815;SDS011;1923;48.154;11.536;2023-02-28T03:40:42;6.53;;;4.45;;
3815;SDS011;1923;48.154;11.536;2023-02-28T03:43:14;10.52;;;5.80;;
3815;SDS011;1923;48.154;11.536;2023-02-28T03:45:55;9.13;;;5.57;;
3815;SDS011;1923;48.154;11.536;2023-02-28T03:48:27;8.77;;;5.18;;
3815;SDS011;1923;48.154;11.536;2023-02-28T03:51:00;10.00;;;5.00;;
3815;SDS011;1923;48.154;11.536;2023-02-28T03:53:31;9.50;;;5.35;;
3815;SDS011;1923;48.154;11.536;2023-02-28T03:56:02;11.40;;;5.30;;
3815;SDS011;1923;48.154;11.536;2023-02-28T03:58:37;9.45;;;6.20;;
3815;SDS011;1923;48.154;11.536;2023-02-28T04:01:10;8.38;;;5.68;;
3815;SDS011;1923;48.154;11.536;2023-02-28T04:03:42;9.93;;;5.72;;
3815;SDS011;1923;48.154;11.536;2023-02-28T04:06:13;8.68;;;5.63;;
3815;SDS011;1923;48.154;11.536;2023-02-28T04:08:45;12.27;;;6.20;;
3815;SDS011;1923;48.154;11.536;2023-02-28T04:11:17;8.90;;;5.82;;
3815;SDS011;1923;48.154;11.536;2023-02-28T04:13:48;9.43;;;5.55;;
3815;SDS011;1923;48.154;11.536;2023-02-28T04:16:16;8.35;;;5.43;;
3815;SDS011;1923;48.154;11.536;2023-02-28T04:19:00;10.95;;;6.68;;
3815;SDS011;1923;48.154;11.536;2023-02-28T04:21:32;8.98;;;6.30;;
3815;SDS011;1923;48.154;11.536;2023-02-28T04:24:03;10.10;;;6.38;;
3815;SDS011;1923;48.154;11.536;2023-02-28T04:26:32;9.55;;;6.22;;
3815;SDS011;1923;48.154;11.536;2023-02-28T04:29:02;10.30;;;6.43;;
3815;SDS011;1923;48.154;11.536;2023-02-28T04:31:31;11.48;;;6.13;;
3815;SDS011;1923;48.154;11.536;2023-02-28T04:33:59;10.82;;;6.40;;
3815;SDS011;1923;48.154;11.536;2023-02-28T04:36:28;8.82;;;5.78;;
3815;SDS011;1923;48.154;11.536;2023-02-28T04:38:56;7.45;;;5.43;;
3815;SDS011;1923;48.154;11.536;2023-02-28T04:41:26;13.65;;;6.72;;
3815;SDS011;1923;48.154;11.536;2023-02-28T04:43:57;12.88;;;6.82;;
3815;SDS011;1923;48.154;11.536;2023-02-28T04:46:26;10.27;;;6.25;;
3815;SDS011;1923;48.154;11.536;2023-02-28T04:48:54;8.90;;;6.47;;
3815;SDS011;1923;48.154;11.536;2023-02-28T04:51:22;12.65;;;6.70;;
3815;SDS011;1923;48.154;11.536;2023-02-28T04:53:50;9.95;;;6.55;;
3815;SDS011;1923;48.154;11.536;2023-02-28T04:56:18;11.52;;;6.63;;
3815;SDS011;1923;48.154;11.536;2023-02-28T04:58:48;12.20;;;6.50;;
3815;SDS011;1923;48.154;11.536;2023-02-28T05:01:19;11.13;;;9.15;;
3815;SDS011;1923;48.154;11.536;2023-02-28T05:03:49;11.82;;;6.82;;
3815;SDS011;1923;48.154;11.536;2023-02-28T05:06:18;13.25;;;7.32;;
3815;SDS011;1923;48.154;11.536;2023-02-28T05:08:47;11.70;;;7.03;;
3815;SDS011;1923;48.154;11.536;2023-02-28T05:11:17;13.32;;;7.65;;
3815;SDS011;1923;48.154;11.536;2023-02-28T05:13:48;12.75;;;6.70;;
3815;SDS011;1923;48.154;11.536;2023-02-28T05:16:17;13.50;;;6.70;;
3815;SDS011;1923;48.154;11.536;2023-02-28T05:18:46;13.20;;;8.02;;
3815;SDS011;1923;48.154;11.536;2023-02-28T05:21:21;16.58;;;8.50;;
3815;SDS011;1923;48.154;11.536;2023-02-28T05:23:55;17.02;;;7.55;;
3815;SDS011;1923;48.154;11.536;2023-02-28T05:26:25;15.25;;;8.07;;
3815;SDS011;1923;48.154;11.536;2023-02-28T05:28:55;16.13;;;9.02;;
3815;SDS011;1923;48.154;11.536;2023-02-28T05:31:23;17.35;;;9.70;;
3815;SDS011;1923;48.154;11.536;2023-02-28T05:33:51;13.05;;;7.22;;
3815;SDS011;1923;48.154;11.536;2023-02-28T05:36:20;15.98;;;9.02;;
3815;SDS011;1923;48.154;11.536;2023-02-28T05:38:48;13.35;;;7.57;;
3815;SDS011;1923;48.154;11.536;2023-02-28T05:41:17;14.40;;;8.68;;
3815;SDS011;1923;48.154;11.536;2023-02-28T05:43:46;13.93;;;7.55;;
3815;SDS011;1923;48.154;11.536;2023-02-28T05:46:16;13.55;;;7.93;;
3815;SDS011;1923;48.154;11.536;2023-02-28T05:48:47;17.07;;;9.20;;
3815;SDS011;1923;48.154;11.536;2023-02-28T05:51:16;13.07;;;8.85;;
3815;SDS011;1923;48.154;11.536;2023-02-28T05:53:45;15.20;;;8.30;;
3815;SDS011;1923;48.154;11.536;2023-02-28T05:56:14;16.25;;;7.97;;
3815;SDS011;1923;48.154;11.536;2023-02-28T05:58:42;16.33;;;8.75;;
3815;SDS011;1923;48.154;11.536;2023-02-28T06:01:22;17.17;;;8.00;;
3815;SDS011;1923;48.154;11.536;2023-02-28T06:03:55;16.42;;;9.00;;
3815;SDS011;1923;48.154;11.536;2023-02-28T06:06:23;16.50;;;9.50;;
3815;SDS011;1923;48.154;11.536;2023-02-28T06:08:51;18.48;;;9.85;;
3815;SDS011;1923;48.154;11.536;2023-02-28T06:11:20;17.42;;;9.60;;
3815;SDS011;1923;48.154;11.536;2023-02-28T06:13:54;16.77;;;9.47;;
3815;SDS011;1923;48.154;11.536;2023-02-28T06:16:24;19.27;;;10.25;;
3815;SDS011;1923;48.154;11.536;2023-02-28T06:18:53;16.08;;;9.43;;
3815;SDS011;1923;48.154;11.536;2023-02-28T06:21:22;17.02;;;10.15;;
3815;SDS011;1923;48.154;11.536;2023-02-28T06:23:51;14.80;;;9.45;;
3815;SDS011;1923;48.154;11.536;2023-02-28T06:26:19;18.85;;;9.85;;
3815;SDS011;1923;48.154;11.536;2023-02-28T06:28:47;18.38;;;10.10;;
3815;SDS011;1923;48.154;11.536;2023-02-28T06:31:16;16.17;;;9.32;;
3815;SDS011;1923;48.154;11.536;2023-02-28T06:33:46;19.05;;;9.50;;
3815;SDS011;1923;48.154;11.536;2023-02-28T06:36:15;18.25;;;9.55;;
3815;SDS011;1923;48.154;11.536;2023-02-28T06:38:44;16.55;;;9.38;;
3815;SDS011;1923;48.154;11.536;2023-02-28T06:41:12;17.40;;;9.80;;
3815;SDS011;1923;48.154;11.536;2023-02-28T06:43:40;16.67;;;10.05;;
3815;SDS011;1923;48.154;11.536;2023-02-28T06:46:10;19.77;;;11.20;;
3815;SDS011;1923;48.154;11.536;2023-02-28T06:48:40;20.90;;;10.80;;
3815;SDS011;1923;48.154;11.536;2023-02-28T06:51:10;22.27;;;10.80;;
3815;SDS011;1923;48.154;11.536;2023-02-28T06:53:39;22.88;;;9.60;;
3815;SDS011;1923;48.154;11.536;2023-02-28T06:56:12;22.02;;;10.23;;
3815;SDS011;1923;48.154;11.536;2023-02-28T06:58:41;19.02;;;11.70;;
3815;SDS011;1923;48.154;11.536;2023-02-28T07:01:13;18.17;;;10.47;;
3815;SDS011;1923;48.154;11.536;2023-02-28T07:03:42;16.20;;;9.20;;
3815;SDS011;1923;48.154;11.536;2023-02-28T07:06:11;18.20;;;9.82;;
3815;SDS011;1923;48.154;11.536;2023-02-28T07:08:39;17.17;;;9.75;;
3815;SDS011;1923;48.154;11.536;2023-02-28T07:11:07;19.90;;;10.32;;
3815;SDS011;1923;48.154;11.536;2023-02-28T07:13:35;16.23;;;9.80;;
3815;SDS011;1923;48.154;11.536;2023-02-28T07:16:05;18.02;;;10.55;;
3815;SDS011;1923;48.154;11.536;2023-02-28T07:18:36;22.45;;;11.40;;
3815;SDS011;1923;48.154;11.536;2023-02-28T07:21:08;18.45;;;10.00;;
3815;SDS011;1923;48.154;11.536;2023-02-28T07:23:38;23.10;;;11.25;;
3815;SDS011;1923;48.154;11.536;2023-02-28T07:26:07;20.50;;;10.50;;
3815;SDS011;1923;48.154;11.536;2023-02-28T07:28:41;19.02;;;10.82;;
3815;SDS011;1923;48.154;11.536;2023-02-28T07:31:09;19.67;;;11.00;;
3815;SDS011;1923;48.154;11.536;2023-02-28T07:33:38;21.60;;;10.00;;
3815;SDS011;1923;48.154;11.536;2023-02-28T07:36:07;15.85;;;9.80;;
3815;SDS011;1923;48.154;11.536;2023-02-28T07:38:42;18.20;;;9.27;;
3815;SDS011;1923;48.154;11.536;2023-02-28T07:41:13;14.57;;;8.90;;
3815;SDS011;1923;48.154;11.536;2023-02-28T07:43:42;19.60;;;11.18;;
3815;SDS011;1923;48.154;11.536;2023-02-28T07:46:11;16.55;;;9.68;;
3815;SDS011;1923;48.154;11.536;2023-02-28T07:48:42;23.33;;;10.93;;
3815;SDS011;1923;48.154;11.536;2023-02-28T07:51:10;21.33;;;11.20;;
3815;SDS011;1923;48.154;11.536;2023-02-28T07:53:38;21.23;;;10.80;;
3815;SDS011;1923;48.154;11.536;2023-02-28T07:56:08;17.97;;;9.43;;
3815;SDS011;1923;48.154;11.536;2023-02-28T07:58:36;20.67;;;11.27;;
3815;SDS011;1923;48.154;11.536;2023-02-28T08:01:05;19.83;;;11.47;;
3815;SDS011;1923;48.154;11.536;2023-02-28T08:03:33;18.40;;;10.37;;
3815;SDS011;1923;48.154;11.536;2023-02-28T08:06:02;19.98;;;10.52;;
3815;SDS011;1923;48.154;11.536;2023-02-28T08:08:30;21.65;;;12.98;;
3815;SDS011;1923;48.154;11.536;2023-02-28T08:10:58;22.70;;;12.23;;
3815;SDS011;1923;48.154;11.536;2023-02-28T08:13:29;22.77;;;12.50;;
3815;SDS011;1923;48.154;11.536;2023-02-28T08:15:57;21.00;;;11.77;;
3815;SDS011;1923;48.154;11.536;2023-02-28T08:18:25;18.85;;;10.45;;
3815;SDS011;1923;48.154;11.536;2023-02-28T08:20:53;19.97;;;11.10;;
3815;SDS011;1923;48.154;11.536;2023-02-28T08:23:21;19.03;;;11.47;;
3815;SDS011;1923;48.154;11.536;2023-02-28T08:25:52;19.13;;;11.73;;
3815;SDS011;1923;48.154;11.536;2023-02-28T08:28:21;22.45;;;12.65;;
3815;SDS011;1923;48.154;11.536;2023-02-28T08:30:54;22.30;;;11.57;;
3815;SDS011;1923;48.154;11.536;2023-02-28T08:33:22;23.83;;;11.10;;
3815;SDS011;1923;48.154;11.536;2023-02-28T08:35:52;18.53;;;11.00;;
3815;SDS011;1923;48.154;11.536;2023-02-28T08:38:21;20.13;;;11.40;;
3815;SDS011;1923;48.154;11.536;2023-02-28T08:40:56;19.00;;;10.57;;
3815;SDS011;1923;48.154;11.536;2023-02-28T08:43:25;19.97;;;11.80;;
3815;SDS011;1923;48.154;11.536;2023-02-28T08:45:55;22.73;;;10.83;;
3815;SDS011;1923;48.154;11.536;2023-02-28T08:48:24;17.17;;;10.50;;
3815;SDS011;1923;48.154;11.536;2023-02-28T08:50:55;19.77;;;11.97;;
3815;SDS011;1923;48.154;11.536;2023-02-28T08:53:32;20.63;;;11.60;;
3815;SDS011;1923;48.154;11.536;2023-02-28T08:56:01;19.50;;;11.43;;
3815;SDS011;1923;48.154;11.536;2023-02-28T08:58:31;21.57;;;12.00;;
3815;SDS011;1923;48.154;11.536;2023-02-28T09:01:06;18.47;;;11.20;;
3815;SDS011;1923;48.154;11.536;2023-02-28T09:03:36;24.60;;;11.80;;
3815;SDS011;1923;48.154;11.536;2023-02-28T09:06:04;21.77;;;12.47;;
3815;SDS011;1923;48.154;11.536;2023-02-28T09:08:33;21.07;;;11.80;;
3815;SDS011;1923;48.154;11.536;2023-02-28T09:11:01;21.00;;;11.00;;
3815;SDS011;1923;48.154;11.536;2023-02-28T09:13:30;20.20;;;10.40;;
3815;SDS011;1923;48.154;11.536;2023-02-28T09:15:59;21.77;;;12.83;;
3815;SDS011;1923;48.154;11.536;2023-02-28T09:18:30;21.13;;;10.63;;
3815;SDS011;1923;48.154;11.536;2023-02-28T09:20:58;18.90;;;10.00;;
3815;SDS011;1923;48.154;11.536;2023-02-28T09:23:29;21.77;;;10.93;;
3815;SDS011;1923;48.154;11.536;2023-02-28T09:25:58;19.37;;;11.93;;
3815;SDS011;1923;48.154;11.536;2023-02-28T09:28:26;17.92;;;9.52;;
3815;SDS011;1923;48.154;11.536;2023-02-28T09:30:54;20.60;;;10.60;;
3815;SDS011;1923;48.154;11.536;2023-02-28T09:33:25;18.23;;;11.23;;
3815;SDS011;1923;48.154;11.536;2023-02-28T09:35:57;22.47;;;10.67;;
3815;SDS011;1923;48.154;11.536;2023-02-28T09:38:28;17.80;;;10.07;;
3815;SDS011;1923;48.154;11.536;2023-02-28T09:40:58;17.40;;;10.77;;
3815;SDS011;1923;48.154;11.536;2023-02-28T09:43:28;20.40;;;11.60;;
3815;SDS011;1923;48.154;11.536;2023-02-28T09:46:03;17.27;;;10.67;;
3815;SDS011;1923;48.154;11.536;2023-02-28T09:48:39;16.53;;;9.30;;
3815;SDS011;1923;48.154;11.536;2023-02-28T09:51:12;23.13;;;13.87;;
3815;SDS011;1923;48.154;11.536;2023-02-28T09:53:54;19.03;;;11.53;;
3815;SDS011;1923;48.154;11.536;2023-02-28T09:56:28;19.20;;;11.57;;
3815;SDS011;1923;48.154;11.536;2023-02-28T09:59:04;22.00;;;12.40;;
3815;SDS011;1923;48.154;11.536;2023-02-28T10:01:42;20.07;;;10.80;;
3815;SDS011;1923;48.154;11.536;2023-02-28T10:04:33;23.13;;;12.10;;
3815;SDS011;1923;48.154;11.536;2023-02-28T10:07:10;21.10;;;11.80;;
3815;SDS011;1923;48.154;11.536;2023-02-28T10:09:46;19.27;;;10.80;;
3815;SDS011;1923;48.154;11.536;2023-02-28T10:12:19;20.20;;;10.77;;
3815;SDS011;1923;48.154;11.536;2023-02-28T10:14:49;19.60;;;10.38;;
3815;SDS011;1923;48.154;11.536;2023-02-28T10:17:20;20.90;;;10.90;;
3815;SDS011;1923;48.154;11.536;2023-02-28T10:19:56;21.27;;;10.83;;
3815;SDS011;1923;48.154;11.536;2023-02-28T10:22:35;19.00;;;11.43;;
3815;SDS011;1923;48.154;11.536;2023-02-28T10:25:16;18.00;;;9.60;;
3815;SDS011;1923;48.154;11.536;2023-02-28T10:27:46;17.50;;;11.83;;
3815;SDS011;1923;48.154;11.536;2023-02-28T10:30:14;19.60;;;11.43;;
3815;SDS011;1923;48.154;11.536;2023-02-28T10:32:44;25.37;;;12.27;;
3815;SDS011;1923;48.154;11.536;2023-02-28T10:35:16;17.63;;;11.07;;
3815;SDS011;1923;48.154;11.536;2023-02-28T10:37:47;19.00;;;11.17;;
3815;SDS011;1923;48.154;11.536;2023-02-28T10:40:25;18.23;;;10.37;;
3815;SDS011;1923;48.154;11.536;2023-02-28T10:42:58;15.90;;;9.30;;
3815;SDS011;1923;48.154;11.536;2023-02-28T10:45:28;20.57;;;10.27;;
3815;SDS011;1923;48.154;11.536;2023-02-28T10:47:59;23.17;;;10.67;;
3815;SDS011;1923;48.154;11.536;2023-02-28T10:50:33;16.77;;;10.00;;
3815;SDS011;1923;48.154;11.536;2023-02-28T10:53:13;19.87;;;10.30;;
3815;SDS011;1923;48.154;11.536;2023-02-28T10:55:55;18.30;;;9.27;;
3815;SDS011;1923;48.154;11.536;2023-02-28T10:58:26;20.03;;;10.97;;
3815;SDS011;1923;48.154;11.536;2023-02-28T11:00:56;16.90;;;9.77;;
3815;SDS011;1923;48.154;11.536;2023-02-28T11:03:29;18.33;;;10.25;;
3815;SDS011;1923;48.154;11.536;2023-02-28T11:06:05;18.17;;;10.00;;
3815;SDS011;1923;48.154;11.536;2023-02-28T11:08:35;16.97;;;10.27;;
3815;SDS011;1923;48.154;11.536;2023-02-28T11:11:13;18.23;;;9.82;;
3815;SDS011;1923;48.154;11.536;2023-02-28T11:13:43;16.95;;;9.20;;
3815;SDS011;1923;48.154;11.536;2023-02-28T11:16:13;20.00;;;10.20;;
3815;SDS011;1923;48.154;11.536;2023-02-28T11:18:44;18.85;;;9.80;;
3815;SDS011;1923;48.154;11.536;2023-02-28T11:21:18;18.77;;;11.13;;
3815;SDS011;1923;48.154;11.536;2023-02-28T11:23:50;16.47;;;9.93;;
3815;SDS011;1923;48.154;11.536;2023-02-28T11:26:38;19.53;;;10.07;;
3815;SDS011;1923;48.154;11.536;2023-02-28T11:29:12;20.30;;;10.43;;
3815;SDS011;1923;48.154;11.536;2023-02-28T11:32:00;14.80;;;10.20;;
3815;SDS011;1923;48.154;11.536;2023-02-28T11:34:32;18.87;;;10.83;;
3815;SDS011;1923;48.154;11.536;2023-02-28T11:37:01;14.67;;;9.37;;
3815;SDS011;1923;48.154;11.536;2023-02-28T11:39:31;16.98;;;10.02;;
3815;SDS011;1923;48.154;11.536;2023-02-28T11:42:12;16.43;;;10.30;;
3815;SDS011;1923;48.154;11.536;2023-02-28T11:45:08;18.83;;;9.70;;
3815;SDS011;1923;48.154;11.536;2023-02-28T11:47:47;15.37;;;10.20;;
3815;SDS011;1923;48.154;11.536;2023-02-28T11:50:30;18.30;;;10.00;;
3815;SDS011;1923;48.154;11.536;2023-02-28T11:53:16;18.43;;;9.97;;
3815;SDS011;1923;48.154;11.536;2023-02-28T11:55:54;18.37;;;11.10;;
3815;SDS011;1923;48.154;11.536;2023-02-28T11:58:38;17.80;;;10.90;;
3815;SDS011;1923;48.154;11.536;2023-02-28T12:01:19;17.67;;;11.73;;
3815;SDS011;1923;48.154;11.536;2023-02-28T12:04:07;16.90;;;10.67;;
3815;SDS011;1923;48.154;11.536;2023-02-28T12:06:45;17.50;;;10.23;;
3815;SDS011;1923;48.154;11.536;2023-02-28T12:09:29;21.87;;;11.37;;
3815;SDS011;1923;48.154;11.536;2023-02-28T12:12:12;15.70;;;10.10;;
3815;SDS011;1923;48.154;11.536;2023-02-28T12:14:57;17.80;;;9.50;;
3815;SDS011;1923;48.154;11.536;2023-02-28T12:17:47;15.67;;;9.20;;
3815;SDS011;1923;48.154;11.536;2023-02-28T12:20:26;14.90;;;9.57;;
3815;SDS011;1923;48.154;11.536;2023-02-28T12:23:05;21.07;;;10.67;;
3815;SDS011;1923;48.154;11.536;2023-02-28T12:25:57;17.03;;;9.03;;
3815;SDS011;1923;48.154;11.536;2023-02-28T12:28:33;17.13;;;9.80;;
3815;SDS011;1923;48.154;11.536;2023-02-28T12:31:08;18.37;;;10.10;;
3815;SDS011;1923;48.154;11.536;2023-02-28T12:33:40;18.23;;;9.20;;
3815;SDS011;1923;48.154;11.536;2023-02-28T12:36:13;19.53;;;10.27;;
3815;SDS011;1923;48.154;11.536;2023-02-28T12:38:47;20.07;;;10.00;;
3815;SDS011;1923;48.154;11.536;2023-02-28T12:41:25;13.47;;;9.00;;
3815;SDS011;1923;48.154;11.536;2023-02-28T12:43:58;17.50;;;10.10;;
3815;SDS011;1923;48.154;11.536;2023-02-28T12:46:30;18.33;;;9.70;;
3815;SDS011;1923;48.154;11.536;2023-02-28T12:49:05;18.03;;;9.90;;
3815;SDS011;1923;48.154;11.536;2023-02-28T12:51:37;17.40;;;9.60;;
3815;SDS011;1923;48.154;11.536;2023-02-28T12:54:09;14.27;;;9.53;;
3815;SDS011;1923;48.154;11.536;2023-02-28T12:56:46;14.57;;;9.03;;
3815;SDS011;1923;48.154;11.536;2023-02-28T12:59:22;13.87;;;8.43;;
3815;SDS011;1923;48.154;11.536;2023-02-28T13:05:14;12.53;;;8.90;;
3815;SDS011;1923;48.154;11.536;2023-02-28T13:08:04;16.90;;;9.33;;
3815;SDS011;1923;48.154;11.536;2023-02-28T13:10:53;12.53;;;8.30;;
3815;SDS011;1923;48.154;11.536;2023-02-28T13:13:24;13.30;;;8.10;;
3815;SDS011;1923;48.154;11.536;2023-02-28T13:16:00;14.90;;;8.63;;
3815;SDS011;1923;48.154;11.536;2023-02-28T13:18:31;14.03;;;8.30;;
3815;SDS011;1923;48.154;11.536;2023-02-28T13:21:04;20.10;;;9.63;;
3815;SDS011;1923;48.154;11.536;2023-02-28T13:23:38;16.67;;;7.88;;
3815;SDS011;1923;48.154;11.536;2023-02-28T13:26:08;13.47;;;8.77;;
3815;SDS011;1923;48.154;11.536;2023-02-28T13:38:21;14.57;;;8.23;;
3815;SDS011;1923;48.154;11.536;2023-02-28T13:44:01;16.00;;;9.77;;
3815;SDS011;1923;48.154;11.536;2023-02-28T13:46:31;18.47;;;9.77;;
3815;SDS011;1923;48.154;11.536;2023-02-28T13:51:51;15.87;;;8.83;;
3815;SDS011;1923;48.154;11.536;2023-02-28T13:54:29;15.95;;;8.40;;
3815;SDS011;1923;48.154;11.536;2023-02-28T13:57:12;15.03;;;8.53;;
3815;SDS011;1923;48.154;11.536;2023-02-28T13:59:50;14.37;;;8.33;;
3815;SDS011;1923;48.154;11.536;2023-02-28T14:02:31;18.23;;;9.77;;
3815;SDS011;1923;48.154;11.536;2023-02-28T14:05:13;21.73;;;9.63;;
3815;SDS011;1923;48.154;11.536;2023-02-28T14:07:45;16.50;;;9.40;;
3815;SDS011;1923;48.154;11.536;2023-02-28T14:10:21;15.50;;;9.17;;
3815;SDS011;1923;48.154;11.536;2023-02-28T14:12:57;14.53;;;8.23;;
3815;SDS011;1923;48.154;11.536;2023-02-28T14:15:36;17.17;;;9.23;;
3815;SDS011;1923;48.154;11.536;2023-02-28T14:18:17;15.63;;;9.80;;
3815;SDS011;1923;48.154;11.536;2023-02-28T14:20:54;15.73;;;9.13;;
3815;SDS011;1923;48.154;11.536;2023-02-28T14:23:38;14.63;;;8.17;;
3815;SDS011;1923;48.154;11.536;2023-02-28T14:26:36;17.23;;;8.87;;
3815;SDS011;1923;48.154;11.536;2023-02-28T14:29:29;14.27;;;8.40;;
3815;SDS011;1923;48.154;11.536;2023-02-28T14:32:22;13.00;;;8.63;;
3815;SDS011;1923;48.154;11.536;2023-02-28T14:34:55;16.97;;;9.57;;
3815;SDS011;1923;48.154;11.536;2023-02-28T14:37:33;12.30;;;8.33;;
3815;SDS011;1923;48.154;11.536;2023-02-28T14:40:11;12.03;;;8.43;;
3815;SDS011;1923;48.154;11.536;2023-02-28T14:42:46;12.73;;;8.60;;
3815;SDS011;1923;48.154;11.536;2023-02-28T14:45:18;13.10;;;8.93;;
3815;SDS011;1923;48.154;11.536;2023-02-28T14:47:48;12.30;;;8.07;;
3815;SDS011;1923;48.154;11.536;2023-02-28T14:50:18;15.27;;;8.70;;
3815;SDS011;1923;48.154;11.536;2023-02-28T14:52:48;14.40;;;8.50;;
3815;SDS011;1923;48.154;11.536;2023-02-28T14:55:19;13.57;;;8.93;;
3815;SDS011;1923;48.154;11.536;2023-02-28T14:57:52;12.40;;;8.50;;
3815;SDS011;1923;48.154;11.536;2023-02-28T15:00:23;14.60;;;9.47;;
3815;SDS011;1923;48.154;11.536;2023-02-28T15:02:53;13.77;;;9.00;;
3815;SDS011;1923;48.154;11.536;2023-02-28T15:05:27;12.70;;;8.00;;
3815;SDS011;1923;48.154;11.536;2023-02-28T15:08:11;13.63;;;8.10;;
3815;SDS011;1923;48.154;11.536;2023-02-28T15:10:40;14.43;;;8.50;;
3815;SDS011;1923;48.154;11.536;2023-02-28T15:13:11;15.13;;;8.50;;
3815;SDS011;1923;48.154;11.536;2023-02-28T15:15:43;13.13;;;8.00;;
3815;SDS011;1923;48.154;11.536;2023-02-28T15:18:31;15.10;;;8.80;;
3815;SDS011;1923;48.154;11.536;2023-02-28T15:21:05;12.67;;;7.77;;
3815;SDS011;1923;48.154;11.536;2023-02-28T15:23:36;11.87;;;8.60;;
3815;SDS011;1923;48.154;11.536;2023-02-28T15:26:05;14.13;;;7.47;;
3815;SDS011;1923;48.154;11.536;2023-02-28T15:28:33;11.70;;;7.80;;
3815;SDS011;1923;48.154;11.536;2023-02-28T15:31:03;13.17;;;7.33;;
3815;SDS011;1923;48.154;11.536;2023-02-28T15:33:52;11.27;;;7.13;;
3815;SDS011;1923;48.154;11.536;2023-02-28T15:36:23;14.37;;;8.20;;
3815;SDS011;1923;48.154;11.536;2023-02-28T15:38:56;13.98;;;7.85;;
3815;SDS011;1923;48.154;11.536;2023-02-28T15:41:40;17.07;;;8.10;;
3815;SDS011;1923;48.154;11.536;2023-02-28T15:44:23;15.57;;;8.33;;
3815;SDS011;1923;48.154;11.536;2023-02-28T15:46:57;13.77;;;7.97;;
3815;SDS011;1923;48.154;11.536;2023-02-28T15:49:28;15.63;;;9.07;;
3815;SDS011;1923;48.154;11.536;2023-02-28T15:52:11;14.30;;;8.40;;